Latest Weather Observations for Low Isles

IDQ60801

Issued at 10:02 pm EST Sunday 25 January 2015 (issued every 30 minutes, with the page automatically refreshed every 10 minutes)

About weather observations | Map of weather stations | Latest weather observations for QLD | Other Formats
Station Details ID: 031037 Name: LOW ISLES LIGHTHOUSE Lat: -16.38 Lon: 145.56 Height: 2.9 m
Data from the previous 72 hours. | See also: Recent months at Low Isles
Date/Time
EST
Temp
°C
App
Temp
°C
Dew
Point
Rel
Hum
%
Delta-T
°C
Wind Press
QNH
hPa
Press
MSL
hPa
Rain
since 9 am
mm
Dir
 
Spd
km/h
Gust
km/h
Spd
kts
Gust
kts
25/10:00pm 26.8 31.1 23.7 83 2.1 NNW 7 9 4 5 1007.9 - 2.8
25/09:30pm 27.5 31.8 24.9 86 1.8 WNW 11 17 6 9 1007.6 - 2.8
25/09:00pm 27.2 30.4 25.0 88 1.5 WNW 17 20 9 11 1007.1 1007.0 2.8
25/08:30pm 27.3 29.3 25.1 88 1.5 NW 24 28 13 15 1006.8 - 2.6
25/08:00pm 27.5 29.3 24.9 86 1.8 WNW 24 26 13 14 1006.7 - 2.6
25/07:30pm 27.7 27.9 24.7 84 2.1 NW 32 37 17 20 1006.5 - 2.4
25/07:00pm 27.2 27.3 24.6 86 1.8 NNW 32 41 17 22 1006.2 - 2.4
25/06:30pm 26.4 27.2 25.0 92 1.0 NNW 30 35 16 19 1006.5 - 2.4
25/06:29pm 26.5 26.9 25.1 92 1.0 NNW 32 35 17 19 1006.5 - 2.4
25/06:00pm 28.9 28.5 25.9 84 2.1 WNW 39 56 21 30 1006.2 1006.1 0.0
25/05:59pm 29.2 29.8 26.8 87 1.7 NW 37 56 20 30 1006.2 - 0.0
25/05:30pm 29.0 30.1 27.0 89 1.4 N 35 43 19 23 1005.1 - 0.0
25/05:15pm 29.1 28.6 26.9 88 1.6 N 43 63 23 34 1004.6 - 0.0
25/05:00pm 29.5 28.9 26.7 85 2.0 N 43 48 23 26 1004.5 - 0.0
25/04:30pm 30.1 29.2 26.3 80 2.7 N 43 48 23 26 1004.4 - 0.0
25/04:00pm 31.6 33.0 26.6 75 3.6 N 32 37 17 20 1004.5 - 0.0
25/03:30pm 31.5 31.9 25.1 69 4.5 N 32 35 17 19 1004.9 - 0.0
25/03:00pm 34.0 36.0 25.7 62 5.9 NNE 26 30 14 16 1005.1 1005.0 0.0
25/02:30pm 35.0 37.9 26.6 61 6.1 NNE 24 26 13 14 1005.5 - 0.0
25/02:00pm 35.1 39.1 25.6 58 6.8 NE 15 15 8 8 1005.9 - 0.0
25/01:30pm 34.4 38.3 24.9 57 6.7 NNE 13 15 7 8 1006.5 - 0.0
25/01:00pm 35.5 39.9 25.7 57 7.0 NE 13 15 7 8 1006.8 - 0.0
25/12:30pm 34.8 40.1 27.0 64 5.7 NE 13 15 7 8 1007.5 - 0.0
25/12:00pm 32.8 37.4 25.9 67 4.9 NNW 13 17 7 9 1007.6 1007.5 0.0
25/11:30am 32.7 37.2 25.8 67 4.9 NW 13 17 7 9 1008.1 - 0.0
25/11:00am 30.3 31.8 24.9 73 3.8 NW 26 28 14 15 1008.7 - 0.0
25/10:30am 30.9 31.7 25.0 71 4.2 WNW 30 35 16 19 1009.1 - 0.0
25/10:00am 29.7 30.2 24.6 74 3.6 NW 30 35 16 19 1009.4 - 0.0
25/09:30am 29.3 29.2 24.6 76 3.3 NW 33 41 18 22 1009.4 - 0.0
25/09:26am 29.1 28.4 24.2 75 3.4 NW 35 41 19 22 1009.5 - 0.0
25/09:00am 28.8 31.9 24.1 76 3.3 NW 15 17 8 9 1009.5 1009.4 4.0
25/08:30am 28.1 31.0 24.5 81 2.5 W 17 19 9 10 1009.4 - -
25/08:00am 27.8 30.2 24.2 81 2.5 W 19 20 10 11 1009.3 - -
25/07:30am 27.7 31.0 24.5 83 2.2 WNW 15 17 8 9 1009.3 - -
25/07:00am 27.4 31.1 24.5 84 2.0 WNW 13 17 7 9 1009.2 - -
25/06:30am 27.3 31.0 24.6 85 1.9 WNW 13 17 7 9 1008.7 - -
25/06:00am 27.1 29.8 24.2 84 2.0 WNW 17 20 9 11 1008.4 1008.3 -
25/05:30am 27.1 30.2 24.2 84 2.0 W 15 17 8 9 1008.3 - -
25/05:00am 27.0 30.2 24.3 85 1.9 W 15 19 8 10 1008.1 - -
25/04:30am 27.3 31.2 24.9 87 1.7 W 13 15 7 8 1008.0 - -
25/04:00am 27.4 30.6 24.3 83 2.1 W 15 17 8 9 1007.8 - -
25/03:30am 27.4 30.4 24.7 85 1.9 W 17 20 9 11 1007.8 - -
25/03:00am 27.4 30.7 24.5 84 2.0 WSW 15 19 8 10 1007.9 1007.8 -
25/02:30am 27.4 30.4 24.7 85 1.9 W 17 20 9 11 1007.8 - -
25/02:00am 27.3 30.7 24.7 86 1.8 W 15 19 8 10 1007.8 - -
25/01:30am 26.8 29.8 24.6 88 1.5 W 17 20 9 11 1007.9 - -
25/01:00am 27.0 29.7 24.8 88 1.5 W 19 24 10 13 1008.4 - -
25/12:30am 27.4 30.4 24.7 85 1.9 WNW 17 20 9 11 1008.9 - -
25/12:00am 27.7 31.9 25.3 87 1.7 WSW 13 17 7 9 1009.2 1009.1 -
 
Date/Time
EST
Temp
°C
App
Temp
°C
Dew
Point
Rel
Hum
%
Delta-T
°C
Wind Press
QNH
hPa
Press
MSL
hPa
Rain
since 9 am
mm
Dir
 
Spd
km/h
Gust
km/h
Spd
kts
Gust
kts
24/11:30pm 27.7 31.8 25.7 89 1.4 WSW 15 17 8 9 1009.5 - -
24/11:00pm 27.7 32.3 25.9 90 1.3 WSW 13 17 7 9 1009.6 - -
24/10:30pm 27.5 31.8 26.1 92 1.0 W 15 17 8 9 1009.1 - -
24/10:00pm 27.3 31.1 25.9 92 1.0 NW 17 19 9 10 1009.3 - -
24/09:30pm 26.9 32.0 25.5 92 1.0 NW 9 11 5 6 1008.9 - -
24/09:00pm 27.0 31.1 25.2 90 1.3 NNW 13 17 7 9 1009.1 1009.0 -
24/08:30pm 27.1 31.1 25.1 89 1.4 N 13 17 7 9 1008.5 - -
24/08:00pm 28.0 32.5 25.8 88 1.6 WNW 13 17 7 9 1007.9 - -
24/07:30pm 28.1 31.0 26.5 91 1.1 SW 24 33 13 18 1007.4 - -
24/07:00pm 28.4 31.6 26.4 89 1.4 W 22 24 12 13 1006.6 - -
24/06:34pm 29.0 30.0 26.2 85 2.0 NW 33 35 18 19 1006.6 - -
24/06:30pm 29.4 29.4 26.4 84 2.1 N 39 46 21 25 1006.5 - -
24/06:00pm 29.7 30.8 26.1 81 2.6 N 32 39 17 21 1005.2 1005.1 -
24/05:30pm 30.1 30.9 25.6 77 3.2 N 32 37 17 20 1005.4 - -
24/05:00pm 30.3 30.7 25.1 73 3.7 N 32 35 17 19 1004.7 - -
24/04:30pm 31.4 33.6 26.0 73 3.9 N 26 32 14 17 1004.6 - -
24/04:00pm 31.6 34.0 26.4 74 3.7 N 26 30 14 16 1004.5 - -
24/03:30pm 31.4 34.2 26.9 77 3.2 N 26 30 14 16 1005.0 - -
24/03:00pm 30.6 32.2 26.3 78 3.1 N 30 33 16 18 1005.2 1005.1 0.0
24/02:30pm 31.0 32.5 25.6 73 3.8 N 28 32 15 17 1005.6 - -
24/02:00pm 33.1 35.3 26.1 66 5.0 N 26 32 14 17 1006.0 - -
24/01:30pm 34.1 36.8 26.3 64 5.6 NNE 24 30 13 16 1006.2 - -
24/01:00pm 33.1 34.6 25.6 64 5.3 NNE 28 32 15 17 1006.3 - -
24/12:30pm 32.7 34.3 25.2 64 5.3 N 26 28 14 15 1006.5 - -
24/12:00pm 34.2 37.6 26.1 62 5.8 NE 20 24 11 13 1007.0 1006.9 -
24/10:30am 33.1 39.0 25.9 66 5.1 E 6 9 3 5 1007.5 - 0.0
24/10:00am 31.2 35.8 23.8 64 5.1 ESE 6 9 3 5 1007.5 - 0.0
24/09:30am 31.1 35.9 24.2 66 4.8 NE 6 7 3 4 1007.6 - 0.0
24/09:00am 29.7 35.6 24.1 72 3.9 CALM 0 0 0 0 1007.6 1007.5 0.0
24/08:30am 29.3 34.1 24.4 75 3.4 SW 7 11 4 6 1007.4 - -
24/08:00am 28.7 32.3 24.3 77 3.1 WSW 13 15 7 8 1007.3 - -
24/07:30am 28.3 31.7 24.1 78 2.9 WSW 13 15 7 8 1007.1 - -
24/07:00am 28.0 33.0 25.4 86 1.8 S 9 13 5 7 1006.9 - -
24/06:30am 27.9 31.7 25.3 86 1.8 S 15 17 8 9 1006.3 - -
24/06:00am 27.9 32.2 25.5 87 1.7 S 13 15 7 8 1005.7 1005.6 -
24/05:30am 27.9 32.3 25.1 85 2.0 SSW 11 15 6 8 1005.4 - -
24/05:00am 28.0 30.4 24.2 80 2.6 WSW 19 20 10 11 1004.9 - -
24/04:30am 28.2 29.7 24.4 80 2.6 WSW 24 26 13 14 1004.7 - -
24/04:00am 28.4 30.7 24.4 79 2.8 WSW 20 24 11 13 1004.6 - -
24/03:30am 27.9 32.0 25.7 88 1.6 S 15 17 8 9 1004.7 - -
24/03:00am 28.1 31.5 25.9 88 1.6 SSE 19 20 10 11 1005.0 1004.9 -
24/02:30am 28.2 31.8 26.2 89 1.4 SSE 19 20 10 11 1005.0 - -
24/02:00am 28.4 31.9 26.0 87 1.7 SE 19 20 10 11 1004.8 - -
24/01:30am 28.4 30.8 25.8 86 1.8 SE 24 28 13 15 1004.8 - -
24/01:00am 28.6 32.0 25.8 85 2.0 S 19 20 10 11 1005.1 - -
24/12:30am 28.3 35.5 26.1 88 1.6 CALM 0 6 0 3 1005.2 - -
24/12:00am 28.6 34.6 26.4 88 1.6 NW 7 11 4 6 1005.4 1005.3 -
 
Date/Time
EST
Temp
°C
App
Temp
°C
Dew
Point
Rel
Hum
%
Delta-T
°C
Wind Press
QNH
hPa
Press
MSL
hPa
Rain
since 9 am
mm
Dir
 
Spd
km/h
Gust
km/h
Spd
kts
Gust
kts
23/11:30pm 28.8 33.3 26.4 87 1.7 NNW 15 19 8 10 1005.3 - -
23/11:00pm 28.9 33.1 26.5 87 1.7 N 17 20 9 11 1005.6 - -
23/10:30pm 29.0 34.2 26.8 88 1.6 N 13 17 7 9 1005.6 - -
23/10:00pm 28.4 34.1 24.4 79 2.8 ENE 2 7 1 4 1005.4 - -
23/09:30pm 29.3 35.4 27.1 88 1.6 WNW 9 11 5 6 1005.1 - -
23/09:00pm 29.1 33.8 26.7 87 1.7 NW 15 20 8 11 1004.6 1004.5 -
23/08:30pm 29.0 30.1 26.4 86 1.9 N 33 39 18 21 1004.3 - -
23/08:00pm 29.0 28.6 26.4 86 1.9 N 41 54 22 29 1003.7 - -
23/07:30pm 29.2 29.7 26.6 86 1.9 N 37 43 20 23 1003.3 - -
23/07:00pm 29.3 29.1 26.7 86 1.9 N 41 46 22 25 1003.3 - -
23/06:30pm 29.7 30.1 26.5 83 2.3 N 37 43 20 23 1002.7 - -
23/06:00pm 29.9 30.8 26.7 83 2.3 N 35 41 19 22 1002.5 1002.4 -
23/05:30pm 29.9 30.3 26.5 82 2.4 N 37 43 20 23 1002.1 - -
23/05:00pm 29.8 29.6 26.2 81 2.6 N 39 44 21 24 1001.9 - -
23/04:30pm 30.0 30.2 26.2 80 2.7 NNE 37 41 20 22 1001.9 - -
23/04:00pm 29.9 29.3 25.6 78 3.0 N 39 44 21 24 1001.8 - -
23/03:30pm 30.8 30.3 26.3 77 3.2 NNE 41 44 22 24 1002.0 - -
23/03:00pm 30.6 30.5 25.7 75 3.5 NNE 37 41 20 22 1002.0 1001.9 -
23/02:30pm 30.7 30.6 25.1 72 3.9 N 35 39 19 21 1002.3 - -
23/02:00pm 30.8 30.9 24.9 71 4.1 NNE 33 37 18 20 1002.6 - -
23/01:30pm 31.5 31.6 24.9 68 4.6 NNE 33 37 18 20 1003.0 - -
23/01:00pm 32.4 33.1 25.5 67 4.9 NNE 32 35 17 19 1003.3 - -
23/12:51pm 31.3 31.5 24.7 68 4.6 NNE 32 37 17 20 1003.3 - -
23/10:00am 29.8 32.6 24.9 75 3.4 W 19 20 10 11 1005.3 - 0.0
23/09:30am 29.4 32.3 24.5 75 3.4 W 17 22 9 12 1005.4 - 0.0
23/09:00am 28.5 32.7 24.7 80 2.7 W 11 - 6 - - 1005.1 4.0
23/08:30am 28.0 31.1 24.2 80 2.6 WSW 15 19 8 10 1005.0 - 3.8
23/08:00am 28.2 29.1 24.6 81 2.5 W 28 32 15 17 1004.6 - 3.8
23/07:30am 28.0 28.9 24.6 82 2.4 WNW 28 35 15 19 1004.8 - 3.8
23/07:00am 27.8 30.3 24.4 82 2.4 W 19 26 10 14 1005.0 - 3.8
23/06:30am 28.0 28.8 24.4 81 2.5 WNW 28 32 15 17 1005.1 - 3.8
23/06:00am 27.8 29.2 24.8 84 2.1 W 26 32 14 17 1004.9 1004.8 3.8
23/05:30am 27.4 29.8 24.3 83 2.1 W 19 20 10 11 1004.1 - 3.8
23/05:00am 27.4 30.6 24.3 83 2.1 W 15 17 8 9 1003.9 - 3.8
23/04:30am 27.4 31.1 24.5 84 2.0 WSW 13 15 7 8 1003.9 - 3.8
23/04:00am 27.4 31.2 24.0 82 2.3 W 11 15 6 8 1003.5 - 3.8
23/03:30am 27.3 31.7 24.4 84 2.0 W 9 11 5 6 1003.3 - 3.8
23/03:00am 27.5 31.0 24.9 86 1.8 W 15 17 8 9 1003.4 1003.3 3.8
23/02:30am 26.8 31.9 24.6 88 1.5 N 6 7 3 4 1003.5 - 3.8
23/02:00am 26.8 30.9 24.6 88 1.5 NNW 11 15 6 8 1003.8 - 3.8
23/01:30am 27.4 30.9 24.8 86 1.8 NNW 15 19 8 10 1003.9 - 3.8
23/01:00am 27.5 30.2 24.7 85 1.9 W 19 20 10 11 1004.2 - 3.8
23/12:30am 27.6 30.3 24.8 85 2.0 W 19 20 10 11 1004.5 - 3.8
23/12:00am 27.5 30.0 24.7 85 2.0 NW 20 22 11 12 1004.7 1004.6 3.8
 
Date/Time
EST
Temp
°C
App
Temp
°C
Dew
Point
Rel
Hum
%
Delta-T
°C
Wind Press
QNH
hPa
Press
MSL
hPa
Rain
since 9 am
mm
Dir
 
Spd
km/h
Gust
km/h
Spd
kts
Gust
kts
22/11:30pm 27.5 29.0 24.9 86 1.8 WNW 26 30 14 16 1005.0 - 3.8
22/11:00pm 26.5 29.9 24.7 90 1.2 NNW 15 20 8 11 1004.5 - 3.8
22/10:30pm 26.8 30.5 24.5 87 1.6 N 13 15 7 8 1004.2 - 3.8

Other Formats:

Comma delimited format used in spreadsheet applications
http://www.bom.gov.au/fwo/IDQ60801/IDQ60801.94285.axf

JavaScript Object Notation format (JSON) in row-major order
http://www.bom.gov.au/fwo/IDQ60801/IDQ60801.94285.json